Time;durP1;ratioP1;P1;durP2;ratioP2;P2;SDS_P1;SDS_P2;PMS_P1;PMS_P2;Temp;Humidity;BMP_temperature;BMP_pressure;BME280_temperature;BME280_humidity;BME280_pressure;Samples;Min_cycle;Max_cycle;Signal;HPM_P1;HPM_P2
2022/07/23 00:00:28;;;;;;;2.87;1.00;;;23.50;99.90;;;;;;5060691;28;20713;-80
2022/07/23 00:02:53;;;;;;;1.43;1.17;;;23.40;99.90;;;;;;5062435;28;20193;-80
2022/07/23 00:05:19;;;;;;;1.00;1.00;;;23.20;99.90;;;;;;5064250;28;20186;-80
2022/07/23 00:07:45;;;;;;;3.83;1.53;;;23.00;99.90;;;;;;5064082;28;20570;-80
2022/07/23 00:10:10;;;;;;;0.77;0.77;;;22.90;99.90;;;;;;5063304;28;20205;-80
2022/07/23 00:12:36;;;;;;;2.90;1.03;;;22.80;99.90;;;;;;5062969;28;20189;-80
2022/07/23 00:15:04;;;;;;;0.83;0.83;;;22.80;99.90;;;;;;5069050;28;20203;-79
2022/07/23 00:17:29;;;;;;;0.77;0.77;;;22.80;99.90;;;;;;5069725;28;20625;-80
2022/07/23 00:19:55;;;;;;;2.90;0.90;;;22.70;99.90;;;;;;5062421;28;20201;-80
2022/07/23 00:22:20;;;;;;;0.90;0.90;;;22.60;99.90;;;;;;5057283;28;20190;-80
2022/07/23 00:24:46;;;;;;;0.83;0.80;;;22.60;99.90;;;;;;5068715;28;20268;-80
2022/07/23 00:27:11;;;;;;;1.30;0.90;;;22.60;99.90;;;;;;5068677;28;20209;-80
2022/07/23 00:29:37;;;;;;;0.90;0.90;;;22.60;99.90;;;;;;5062168;28;20240;-80
2022/07/23 00:32:03;;;;;;;0.67;0.67;;;22.30;99.90;;;;;;5060424;28;20711;-79
2022/07/23 00:34:28;;;;;;;1.30;1.20;;;22.20;99.90;;;;;;5067231;28;20231;-80
2022/07/23 00:36:54;;;;;;;1.43;0.70;;;22.20;99.90;;;;;;5069671;28;20279;-81
2022/07/23 00:39:21;;;;;;;4.40;0.87;;;22.10;99.90;;;;;;5060697;28;20626;-80
2022/07/23 00:41:47;;;;;;;1.00;0.90;;;22.00;99.90;;;;;;5065686;28;20189;-80
2022/07/23 00:44:21;;;;;;;0.73;0.73;;;21.90;99.90;;;;;;5060194;28;20185;-80
2022/07/23 00:46:55;;;;;;;0.83;0.70;;;21.80;99.90;;;;;;5064888;28;20234;-80
2022/07/23 00:49:26;;;;;;;0.70;0.70;;;21.90;99.90;;;;;;5058263;28;20222;-80
2022/07/23 00:51:52;;;;;;;1.10;1.07;;;21.80;99.90;;;;;;5064097;28;20197;-81
2022/07/23 00:54:19;;;;;;;1.10;1.00;;;21.70;99.90;;;;;;5059597;28;20706;-81
2022/07/23 00:56:46;;;;;;;1.67;1.57;;;21.80;99.90;;;;;;5078300;28;20240;-80
2022/07/23 00:59:12;;;;;;;1.03;0.80;;;21.80;99.90;;;;;;5057325;28;20228;-80
2022/07/23 01:01:38;;;;;;;1.00;0.90;;;21.80;99.90;;;;;;5058060;28;20203;-80
2022/07/23 01:04:04;;;;;;;1.10;1.10;;;21.70;99.90;;;;;;5063611;28;20643;-79
2022/07/23 01:06:33;;;;;;;0.77;0.77;;;21.80;99.90;;;;;;5065831;28;20177;-80
2022/07/23 01:08:59;;;;;;;0.80;0.80;;;21.90;99.90;;;;;;5064409;28;20236;-80
2022/07/23 01:11:25;;;;;;;1.37;0.87;;;22.10;99.90;;;;;;5056529;28;20828;-80
2022/07/23 01:13:50;;;;;;;2.90;1.27;;;22.20;99.90;;;;;;5065103;28;20188;-80
2022/07/23 01:16:16;;;;;;;0.97;0.70;;;22.20;99.90;;;;;;5062928;28;20235;-80
2022/07/23 01:18:41;;;;;;;0.70;0.70;;;22.30;99.90;;;;;;5067427;28;20193;-80
2022/07/23 01:21:12;;;;;;;0.93;0.93;;;22.20;99.90;;;;;;5069399;28;20193;-79
2022/07/23 01:23:38;;;;;;;1.47;1.00;;;21.90;99.90;;;;;;5062556;28;20181;-80
2022/07/23 01:26:04;;;;;;;1.83;1.10;;;21.30;99.90;;;;;;5058498;28;20239;-80
2022/07/23 01:28:29;;;;;;;1.50;1.30;;;21.00;99.90;;;;;;5062166;28;20188;-80
2022/07/23 01:30:55;;;;;;;1.80;0.83;;;20.60;99.90;;;;;;5066900;28;20185;-80
2022/07/23 01:33:20;;;;;;;0.63;0.60;;;20.60;99.90;;;;;;5066717;28;21213;-80
2022/07/23 01:35:46;;;;;;;1.90;1.80;;;20.70;99.90;;;;;;5066032;28;20288;-80
2022/07/23 01:38:11;;;;;;;0.77;0.50;;;20.70;99.90;;;;;;5069190;28;20271;-80
2022/07/23 01:40:37;;;;;;;0.63;0.63;;;20.80;99.90;;;;;;5060213;28;20323;-80
2022/07/23 01:43:02;;;;;;;0.87;0.63;;;21.00;99.90;;;;;;5064035;28;20207;-80
2022/07/23 01:45:28;;;;;;;0.60;0.60;;;20.90;99.90;;;;;;5068784;28;20726;-80
2022/07/23 01:47:53;;;;;;;1.03;0.83;;;20.90;99.90;;;;;;5069720;28;20279;-80
2022/07/23 01:50:19;;;;;;;1.27;0.77;;;20.80;99.90;;;;;;5067406;28;20694;-79
2022/07/23 01:52:44;;;;;;;1.07;0.97;;;20.90;99.90;;;;;;5066834;28;20203;-80
2022/07/23 01:55:10;;;;;;;1.53;0.87;;;20.90;99.90;;;;;;5065782;28;20186;-80
2022/07/23 01:57:35;;;;;;;0.87;0.70;;;20.80;99.90;;;;;;5070255;28;20201;-80
2022/07/23 02:00:01;;;;;;;0.77;0.77;;;20.70;99.90;;;;;;5067167;28;20300;-80
2022/07/23 02:02:27;;;;;;;0.93;0.87;;;20.50;99.90;;;;;;5066740;28;20189;-80
2022/07/23 02:04:52;;;;;;;1.00;0.70;;;20.10;99.90;;;;;;5067866;28;20181;-80
2022/07/23 02:07:18;;;;;;;1.93;1.80;;;20.10;99.90;;;;;;5066595;28;20187;-80
2022/07/23 02:09:43;;;;;;;1.03;0.93;;;20.00;99.90;;;;;;5070707;28;20209;-80
2022/07/23 02:12:09;;;;;;;1.57;1.47;;;20.00;99.90;;;;;;5067893;28;20196;-80
2022/07/23 02:14:34;;;;;;;0.70;0.70;;;20.10;99.90;;;;;;5070671;28;20197;-80
2022/07/23 02:17:00;;;;;;;1.27;1.17;;;20.20;99.90;;;;;;5072426;28;20609;-80
2022/07/23 02:19:25;;;;;;;1.33;1.23;;;20.20;99.90;;;;;;5064786;28;20193;-80
2022/07/23 02:21:51;;;;;;;1.60;1.23;;;20.20;99.90;;;;;;5068031;28;20227;-80
2022/07/23 02:24:16;;;;;;;0.50;0.50;;;20.10;99.90;;;;;;5065877;28;20185;-79
2022/07/23 02:26:42;;;;;;;0.40;0.40;;;20.20;99.90;;;;;;5071089;28;20189;-80
2022/07/23 02:29:08;;;;;;;1.23;1.10;;;20.40;99.90;;;;;;5063276;28;20209;-80
2022/07/23 02:31:34;;;;;;;0.67;0.67;;;20.50;99.90;;;;;;5064688;28;20189;-79
2022/07/23 02:34:00;;;;;;;1.67;0.97;;;20.50;99.90;;;;;;5064281;28;20209;-80
2022/07/23 02:36:26;;;;;;;0.40;0.40;;;20.20;99.90;;;;;;5067598;28;20212;-79
2022/07/23 02:38:52;;;;;;;2.33;1.50;;;20.10;99.90;;;;;;5082274;28;20289;-80
2022/07/23 02:41:17;;;;;;;0.67;0.67;;;20.10;99.90;;;;;;5067614;28;20189;-79
2022/07/23 02:43:43;;;;;;;1.20;1.10;;;20.10;99.90;;;;;;5065655;28;20177;-80
2022/07/23 02:46:08;;;;;;;2.13;1.10;;;20.20;99.90;;;;;;5070462;28;20196;-80
2022/07/23 02:48:34;;;;;;;1.27;1.20;;;20.20;99.90;;;;;;5071595;28;20581;-79
2022/07/23 02:50:59;;;;;;;1.10;1.00;;;20.10;99.90;;;;;;5070948;28;20181;-79
2022/07/23 02:53:25;;;;;;;0.97;0.97;;;20.10;99.90;;;;;;5072668;28;20181;-79
2022/07/23 02:55:51;;;;;;;1.00;0.90;;;20.10;99.90;;;;;;5070764;28;20258;-79
2022/07/23 02:58:16;;;;;;;1.87;1.77;;;20.10;99.90;;;;;;5072554;28;20653;-80
2022/07/23 03:00:42;;;;;;;1.07;0.97;;;20.00;99.90;;;;;;5070018;28;20208;-80
2022/07/23 03:03:08;;;;;;;1.97;1.17;;;19.90;99.90;;;;;;5069892;28;20177;-80
2022/07/23 03:05:34;;;;;;;0.70;0.70;;;19.70;99.90;;;;;;5072226;28;20203;-80
2022/07/23 03:08:00;;;;;;;0.83;0.83;;;19.70;99.90;;;;;;5067112;28;20187;-80
2022/07/23 03:10:26;;;;;;;1.73;1.07;;;19.80;99.90;;;;;;5071670;28;20284;-80
2022/07/23 03:12:51;;;;;;;2.17;1.10;;;19.70;99.90;;;;;;5067996;28;20415;-80
2022/07/23 03:15:17;;;;;;;1.17;0.97;;;19.70;99.90;;;;;;5066125;28;20183;-80
2022/07/23 03:17:42;;;;;;;0.70;0.70;;;19.80;99.90;;;;;;5069704;28;20221;-80
2022/07/23 03:20:09;;;;;;;2.10;1.27;;;19.70;99.90;;;;;;5064433;28;20697;-80
2022/07/23 03:22:34;;;;;;;1.17;1.00;;;19.70;99.90;;;;;;5070961;28;20227;-80
2022/07/23 03:25:00;;;;;;;1.63;1.50;;;19.70;99.90;;;;;;5069760;28;20185;-80
2022/07/23 03:27:28;;;;;;;0.63;0.60;;;19.70;99.90;;;;;;5071527;28;20188;-80
2022/07/23 03:29:55;;;;;;;0.83;0.83;;;19.80;99.90;;;;;;5057848;28;20209;-81
2022/07/23 03:32:22;;;;;;;1.07;0.97;;;19.80;99.90;;;;;;5065260;28;20184;-80
2022/07/23 03:34:48;;;;;;;0.67;0.67;;;19.80;99.90;;;;;;5068521;28;20672;-80
2022/07/23 03:37:13;;;;;;;2.70;1.00;;;19.80;99.90;;;;;;5071851;28;20198;-80
2022/07/23 03:39:39;;;;;;;1.07;0.90;;;19.90;99.90;;;;;;5063007;28;20365;-80
2022/07/23 03:42:05;;;;;;;0.40;0.40;;;20.00;99.90;;;;;;5081608;28;20180;-80
2022/07/23 03:44:31;;;;;;;1.13;1.03;;;20.10;99.90;;;;;;5066268;28;20174;-80
2022/07/23 03:46:56;;;;;;;1.67;1.33;;;20.20;99.90;;;;;;5068504;28;20173;-80
2022/07/23 03:49:22;;;;;;;1.23;1.13;;;20.10;99.90;;;;;;5068614;28;20213;-80
2022/07/23 03:51:48;;;;;;;0.87;0.87;;;20.20;99.90;;;;;;5069597;28;20185;-80
2022/07/23 03:54:13;;;;;;;0.40;0.40;;;20.20;99.90;;;;;;5068968;28;20196;-79
2022/07/23 03:56:39;;;;;;;0.67;0.67;;;20.30;99.90;;;;;;5068758;28;20295;-80
2022/07/23 03:59:05;;;;;;;1.57;0.90;;;20.40;99.90;;;;;;5061545;28;20295;-80
2022/07/23 04:01:30;;;;;;;1.17;0.70;;;20.30;99.90;;;;;;5069126;28;20268;-80
2022/07/23 04:03:56;;;;;;;0.70;0.67;;;20.20;99.90;;;;;;5066528;28;20271;-80
2022/07/23 04:06:21;;;;;;;1.27;0.83;;;20.30;99.90;;;;;;5068093;28;20189;-80
2022/07/23 04:08:47;;;;;;;0.90;0.90;;;20.30;99.90;;;;;;5069824;28;20192;-80
2022/07/23 04:11:13;;;;;;;1.43;1.13;;;20.20;99.90;;;;;;5066189;28;20204;-80
2022/07/23 04:13:38;;;;;;;0.60;0.60;;;20.10;99.90;;;;;;5071413;28;20196;-80
2022/07/23 04:16:04;;;;;;;0.70;0.57;;;20.10;99.90;;;;;;5068754;28;20209;-80
2022/07/23 04:18:30;;;;;;;0.60;0.60;;;19.90;99.90;;;;;;5070021;28;20177;-80
2022/07/23 04:20:55;;;;;;;0.63;0.63;;;20.00;99.90;;;;;;5068439;28;20188;-80
2022/07/23 04:23:21;;;;;;;1.30;0.80;;;20.00;99.90;;;;;;5069860;28;20180;-80
2022/07/23 04:25:47;;;;;;;2.20;1.40;;;20.10;99.90;;;;;;5084417;28;20181;-80
2022/07/23 04:28:12;;;;;;;0.50;0.50;;;20.00;99.90;;;;;;5067590;28;20560;-80
2022/07/23 04:30:38;;;;;;;0.80;0.80;;;20.20;99.90;;;;;;5066094;28;20201;-80
2022/07/23 04:33:06;;;;;;;0.63;0.60;;;20.40;99.90;;;;;;5061723;28;20561;-80
2022/07/23 04:35:35;;;;;;;2.17;1.07;;;20.60;99.90;;;;;;5066385;28;20535;-80
2022/07/23 04:38:01;;;;;;;1.37;0.97;;;20.60;99.90;;;;;;5068883;28;20209;-80
2022/07/23 04:40:27;;;;;;;1.00;0.90;;;20.60;99.90;;;;;;5067043;28;20213;-79
2022/07/23 04:42:53;;;;;;;1.27;0.77;;;20.80;99.90;;;;;;5067498;28;20188;-79
2022/07/23 04:45:18;;;;;;;3.47;0.90;;;20.70;99.90;;;;;;5070373;28;20187;-79
2022/07/23 04:47:44;;;;;;;1.63;1.50;;;21.00;99.90;;;;;;5065655;28;20188;-79
2022/07/23 04:50:09;;;;;;;1.63;1.30;;;20.70;99.90;;;;;;5059670;28;20212;-79
2022/07/23 04:52:35;;;;;;;1.17;0.90;;;20.40;99.90;;;;;;5066490;28;20177;-79
2022/07/23 04:55:01;;;;;;;1.10;0.83;;;20.40;99.90;;;;;;5068693;28;22144;-79
2022/07/23 04:57:27;;;;;;;0.80;0.80;;;20.40;99.90;;;;;;5059779;28;20213;-79
2022/07/23 04:59:52;;;;;;;0.57;0.57;;;20.40;99.90;;;;;;5066410;28;20692;-79
2022/07/23 05:02:18;;;;;;;1.83;1.53;;;20.20;99.90;;;;;;5061312;28;20201;-81
2022/07/23 05:04:43;;;;;;;0.87;0.87;;;20.40;99.90;;;;;;5068310;28;20196;-80
2022/07/23 05:07:09;;;;;;;0.90;0.80;;;20.60;99.90;;;;;;5066327;28;20186;-80
2022/07/23 05:09:34;;;;;;;1.20;1.10;;;20.30;99.90;;;;;;5068474;28;20305;-80
2022/07/23 05:12:00;;;;;;;0.50;0.50;;;20.50;99.90;;;;;;5064361;28;20677;-80
2022/07/23 05:14:27;;;;;;;1.07;0.97;;;20.80;99.90;;;;;;5065448;28;20185;-79
2022/07/23 05:16:53;;;;;;;1.33;0.93;;;20.90;99.90;;;;;;5065278;28;20216;-78
2022/07/23 05:19:19;;;;;;;0.73;0.73;;;21.20;99.90;;;;;;5065260;28;20212;-78
2022/07/23 05:21:45;;;;;;;1.00;0.87;;;21.10;99.90;;;;;;5066481;28;20181;-78
2022/07/23 05:24:10;;;;;;;1.20;1.10;;;21.40;99.90;;;;;;5066421;28;20268;-78
2022/07/23 05:26:36;;;;;;;0.90;0.90;;;21.50;99.90;;;;;;5066486;28;20185;-78
2022/07/23 05:29:01;;;;;;;1.33;1.17;;;21.00;99.90;;;;;;5063558;28;20210;-79
2022/07/23 05:31:27;;;;;;;1.20;1.10;;;21.00;99.90;;;;;;5060406;28;20184;-78
2022/07/23 05:33:52;;;;;;;0.97;0.97;;;21.00;99.90;;;;;;5064972;28;20227;-78
2022/07/23 05:36:18;;;;;;;2.17;0.80;;;21.10;99.90;;;;;;5068903;28;20204;-78
2022/07/23 05:38:43;;;;;;;0.83;0.83;;;21.20;99.90;;;;;;5066480;28;20207;-78
2022/07/23 05:41:09;;;;;;;1.67;1.50;;;21.30;99.90;;;;;;5059075;28;21191;-78
2022/07/23 05:43:34;;;;;;;1.53;0.97;;;21.20;99.90;;;;;;5061746;28;20268;-78
2022/07/23 05:46:00;;;;;;;1.27;1.10;;;21.20;99.90;;;;;;5066247;28;20230;-79
2022/07/23 05:48:25;;;;;;;1.60;1.47;;;21.20;99.90;;;;;;5060856;28;20240;-81
2022/07/23 05:50:51;;;;;;;2.57;1.03;;;21.30;99.90;;;;;;5068234;28;20432;-82
2022/07/23 05:53:17;;;;;;;0.50;0.50;;;21.20;99.90;;;;;;5059473;28;20174;-79
2022/07/23 05:55:42;;;;;;;1.00;0.73;;;21.60;99.90;;;;;;5068006;28;20189;-79
2022/07/23 05:58:08;;;;;;;1.17;1.03;;;21.40;99.90;;;;;;5064759;28;20217;-79
2022/07/23 06:00:34;;;;;;;2.73;1.03;;;21.40;99.90;;;;;;5065889;28;20215;-79
2022/07/23 06:03:00;;;;;;;0.63;0.60;;;21.40;99.90;;;;;;5066243;28;20185;-79
2022/07/23 06:05:26;;;;;;;1.47;0.80;;;21.70;99.90;;;;;;5062743;28;20182;-79
2022/07/23 06:07:52;;;;;;;0.73;0.73;;;22.10;99.90;;;;;;5065092;28;20290;-79
2022/07/23 06:10:18;;;;;;;0.80;0.80;;;22.60;99.90;;;;;;5067084;28;20208;-79
2022/07/23 06:12:44;;;;;;;0.97;0.70;;;23.00;99.90;;;;;;5067475;28;20189;-79
2022/07/23 06:15:10;;;;;;;0.60;0.60;;;22.50;99.90;;;;;;5067145;28;20192;-79
2022/07/23 06:17:38;;;;;;;1.13;1.03;;;22.90;99.90;;;;;;5065012;28;20306;-79
2022/07/23 06:20:08;;;;;;;0.57;0.57;;;23.20;99.90;;;;;;5058654;28;20287;-80
2022/07/23 06:22:34;;;;;;;0.83;0.83;;;22.90;99.90;;;;;;5065260;28;20187;-80
2022/07/23 06:24:59;;;;;;;1.13;0.80;;;23.30;99.90;;;;;;5069185;28;20173;-79
2022/07/23 06:27:25;;;;;;;1.27;1.27;;;22.60;99.90;;;;;;5067376;28;20180;-79
2022/07/23 06:29:50;;;;;;;1.07;0.90;;;22.30;99.90;;;;;;5062766;28;20202;-79
2022/07/23 06:32:16;;;;;;;2.43;1.07;;;22.50;99.90;;;;;;5072898;28;20569;-79
2022/07/23 06:34:41;;;;;;;0.60;0.60;;;22.90;99.90;;;;;;5070342;28;20200;-81
2022/07/23 06:37:07;;;;;;;1.60;1.50;;;23.20;99.90;;;;;;5065293;28;20220;-80
2022/07/23 06:39:33;;;;;;;0.70;0.67;;;22.70;99.90;;;;;;5070328;28;20228;-81
2022/07/23 06:41:58;;;;;;;1.30;1.00;;;23.00;99.90;;;;;;5057219;28;20186;-79
2022/07/23 06:44:24;;;;;;;1.10;0.57;;;22.90;99.90;;;;;;5088626;28;20180;-79
2022/07/23 06:46:49;;;;;;;1.63;1.03;;;23.40;99.90;;;;;;5067298;28;20181;-80
2022/07/23 06:49:15;;;;;;;0.77;0.77;;;23.50;99.90;;;;;;5069811;28;20693;-79
2022/07/23 06:51:40;;;;;;;1.03;1.03;;;23.20;99.90;;;;;;5067911;28;20185;-80
2022/07/23 06:54:06;;;;;;;0.80;0.77;;;22.80;99.90;;;;;;5069385;28;20338;-80
2022/07/23 06:56:31;;;;;;;0.90;0.90;;;22.70;99.90;;;;;;5062771;28;20200;-81
2022/07/23 06:58:57;;;;;;;1.40;1.30;;;22.60;99.90;;;;;;5067712;28;20202;-80
2022/07/23 07:01:22;;;;;;;1.33;1.20;;;23.00;99.90;;;;;;5070620;28;20556;-80
2022/07/23 07:03:48;;;;;;;1.47;1.33;;;23.10;99.90;;;;;;5063603;28;20213;-80
2022/07/23 07:06:15;;;;;;;1.20;1.00;;;23.10;99.90;;;;;;5063230;28;20753;-80
2022/07/23 07:08:42;;;;;;;1.03;0.97;;;23.00;99.90;;;;;;5063104;28;20192;-80
2022/07/23 07:11:08;;;;;;;1.50;1.27;;;23.50;99.90;;;;;;5069255;28;20264;-80
2022/07/23 07:13:34;;;;;;;1.53;0.83;;;24.20;99.90;;;;;;5070430;28;20841;-80
2022/07/23 07:15:59;;;;;;;1.20;0.87;;;24.30;99.90;;;;;;5072602;28;20661;-80
2022/07/23 07:18:25;;;;;;;2.27;1.13;;;24.30;99.90;;;;;;5067998;28;20184;-80
2022/07/23 07:20:50;;;;;;;0.93;0.80;;;24.70;99.90;;;;;;5069874;28;20567;-80
2022/07/23 07:23:16;;;;;;;0.50;0.50;;;25.10;99.90;;;;;;5073038;28;20182;-80
2022/07/23 07:25:41;;;;;;;2.87;2.37;;;25.00;99.90;;;;;;5064471;28;20185;-80
2022/07/23 07:28:07;;;;;;;3.30;1.80;;;24.10;99.90;;;;;;5064655;28;20211;-80
2022/07/23 07:30:32;;;;;;;1.10;1.07;;;24.20;99.90;;;;;;5062714;28;20201;-80
2022/07/23 07:32:58;;;;;;;1.90;0.87;;;23.90;99.90;;;;;;5064474;28;20215;-80
2022/07/23 07:35:24;;;;;;;0.70;0.70;;;24.00;99.90;;;;;;5065587;28;20265;-80
2022/07/23 07:37:49;;;;;;;1.07;0.90;;;24.20;99.90;;;;;;5071482;28;20682;-81
2022/07/23 07:40:15;;;;;;;0.90;0.70;;;24.70;99.90;;;;;;5066074;28;20251;-81
2022/07/23 07:42:47;;;;;;;0.90;0.60;;;25.10;99.90;;;;;;5088206;28;20173;-81
2022/07/23 07:45:13;;;;;;;0.33;0.33;;;25.60;99.90;;;;;;5070882;28;20267;-81
2022/07/23 07:47:38;;;;;;;0.90;0.90;;;25.60;99.90;;;;;;5068069;28;20185;-80
2022/07/23 07:50:04;;;;;;;0.90;0.70;;;25.70;99.90;;;;;;5067840;28;20216;-80
2022/07/23 07:52:30;;;;;;;1.00;0.90;;;26.10;99.90;;;;;;5068514;28;20701;-81
2022/07/23 07:54:55;;;;;;;2.37;0.67;;;26.40;99.90;;;;;;5067279;28;20266;-80
2022/07/23 07:57:22;;;;;;;1.53;0.87;;;26.40;99.90;;;;;;5071034;28;20598;-80
2022/07/23 07:59:47;;;;;;;0.70;0.70;;;26.30;99.90;;;;;;5060854;28;20201;-80
2022/07/23 08:02:13;;;;;;;1.63;1.23;;;26.40;99.90;;;;;;5067100;28;20193;-80
2022/07/23 08:04:38;;;;;;;0.60;0.60;;;26.60;99.90;;;;;;5054523;28;20619;-80
2022/07/23 08:07:04;;;;;;;0.50;0.50;;;26.40;99.90;;;;;;5057232;28;20194;-80
2022/07/23 08:09:29;;;;;;;0.63;0.63;;;26.50;99.90;;;;;;5058398;28;20759;-80
2022/07/23 08:11:55;;;;;;;0.50;0.50;;;26.50;99.90;;;;;;5061873;28;20196;-80
2022/07/23 08:14:20;;;;;;;0.97;0.87;;;26.60;99.90;;;;;;5069883;28;22143;-80
2022/07/23 08:16:46;;;;;;;1.03;0.97;;;26.80;99.90;;;;;;5063826;28;20250;-80
2022/07/23 08:19:11;;;;;;;2.63;1.67;;;27.00;99.90;;;;;;5064376;28;20209;-80
2022/07/23 08:21:37;;;;;;;0.77;0.77;;;27.10;99.90;;;;;;5058781;28;20181;-79
2022/07/23 08:24:03;;;;;;;1.00;0.93;;;27.50;99.90;;;;;;5061669;28;20192;-79
2022/07/23 08:26:28;;;;;;;0.87;0.87;;;27.00;99.90;;;;;;5059812;28;20185;-80
2022/07/23 08:28:54;;;;;;;0.67;0.60;;;26.60;99.90;;;;;;5065397;28;20289;-80
2022/07/23 08:31:19;;;;;;;1.17;1.17;;;27.00;99.90;;;;;;5063108;28;20185;-80
2022/07/23 08:33:45;;;;;;;0.70;0.70;;;26.90;99.90;;;;;;5063261;28;20270;-80
2022/07/23 08:36:10;;;;;;;1.30;1.20;;;27.20;99.90;;;;;;5068778;28;20665;-80
2022/07/23 08:38:36;;;;;;;0.90;0.90;;;27.60;99.90;;;;;;5083174;28;20178;-80
2022/07/23 08:41:04;;;;;;;1.52;1.13;;;28.00;99.90;;;;;;5061962;28;20189;-80
2022/07/23 08:43:33;;;;;;;1.57;1.10;;;27.50;99.90;;;;;;5058344;28;20276;-80
2022/07/23 08:46:00;;;;;;;0.60;0.60;;;27.50;99.90;;;;;;5059419;28;20192;-80
2022/07/23 08:48:29;;;;;;;1.03;0.80;;;27.50;99.90;;;;;;5065284;28;20204;-80
2022/07/23 08:50:59;;;;;;;1.37;1.27;;;27.60;99.90;;;;;;5062458;28;20216;-80
2022/07/23 08:53:27;;;;;;;0.80;0.80;;;27.40;99.90;;;;;;5068350;28;20190;-80
2022/07/23 08:55:55;;;;;;;1.07;1.03;;;26.10;99.90;;;;;;5064688;28;20195;-80
2022/07/23 08:58:21;;;;;;;0.77;0.60;;;25.80;99.90;;;;;;5066262;28;20187;-80
2022/07/23 09:00:48;;;;;;;1.93;0.60;;;26.60;99.90;;;;;;5059684;28;20208;-81
2022/07/23 09:03:23;;;;;;;0.83;0.63;;;27.10;99.90;;;;;;5060334;28;20185;-81
2022/07/23 09:05:51;;;;;;;1.07;1.07;;;27.50;99.90;;;;;;5063139;28;20185;-80
2022/07/23 09:08:19;;;;;;;0.67;0.57;;;27.70;99.90;;;;;;5062612;28;20264;-80
2022/07/23 09:10:57;;;;;;;7.83;1.20;;;27.70;99.90;;;;;;5059288;28;20211;-80
2022/07/23 09:13:32;;;;;;;1.10;0.70;;;27.30;99.90;;;;;;5062315;28;20268;-80
2022/07/23 09:16:03;;;;;;;1.00;0.80;;;26.80;99.90;;;;;;5063614;28;20603;-80
2022/07/23 09:18:38;;;;;;;0.80;0.80;;;27.60;99.90;;;;;;5066704;28;20192;-80
2022/07/23 09:21:13;;;;;;;1.40;1.20;;;27.20;99.90;;;;;;5065133;28;20192;-80
2022/07/23 09:24:03;;;;;;;1.03;0.67;;;27.50;99.90;;;;;;5063247;28;20184;-80
2022/07/23 09:26:42;;;;;;;0.73;0.70;;;28.20;99.90;;;;;;5062477;28;20655;-80
2022/07/23 09:29:13;;;;;;;3.30;0.98;;;28.70;99.90;;;;;;5064771;28;20241;-80
2022/07/23 09:31:53;;;;;;;0.65;0.65;;;28.80;99.90;;;;;;5083505;28;20297;-80
2022/07/23 09:34:38;;;;;;;0.70;0.70;;;29.30;99.90;;;;;;5078303;28;20219;-80
2022/07/23 09:37:16;;;;;;;3.10;1.13;;;29.40;99.90;;;;;;5066794;28;20599;-80
2022/07/23 09:39:43;;;;;;;2.67;2.10;;;28.40;99.90;;;;;;5067186;28;20201;-80
2022/07/23 09:42:23;;;;;;;1.25;1.15;;;28.40;99.90;;;;;;5061575;28;20235;-81
2022/07/23 09:44:51;;;;;;;0.73;0.73;;;27.40;99.90;;;;;;5060513;28;20173;-80
2022/07/23 09:47:17;;;;;;;1.33;0.93;;;28.40;99.90;;;;;;5068891;28;20535;-81
2022/07/23 09:50:05;;;;;;;0.80;0.80;;;29.10;99.90;;;;;;5063049;28;20240;-80
2022/07/23 09:52:33;;;;;;;0.50;0.50;;;29.30;99.90;;;;;;5065147;28;20184;-81
2022/07/23 09:55:05;;;;;;;1.60;1.13;;;29.30;99.90;;;;;;5066854;28;20192;-80
2022/07/23 09:57:32;;;;;;;1.10;1.00;;;29.80;99.90;;;;;;5067477;28;20734;-80
2022/07/23 10:00:01;;;;;;;1.10;1.00;;;29.20;99.90;;;;;;5064883;28;20205;-80
2022/07/23 10:02:28;;;;;;;0.95;0.90;;;28.70;99.90;;;;;;5067247;28;20534;-80
2022/07/23 10:04:54;;;;;;;1.20;1.10;;;28.70;99.90;;;;;;5060788;28;20259;-81
2022/07/23 10:07:23;;;;;;;0.68;0.68;;;28.70;99.90;;;;;;5066847;28;20305;-81
2022/07/23 10:09:52;;;;;;;0.85;0.85;;;28.90;99.90;;;;;;5061796;28;20301;-79
2022/07/23 10:14:50;;;;;;;0.88;0.88;;;27.20;99.90;;;;;;5070078;28;20570;-79
2022/07/23 10:17:17;;;;;;;2.28;1.17;;;27.70;99.90;;;;;;5069132;28;20205;-80
2022/07/23 10:19:44;;;;;;;1.40;1.23;;;28.30;99.90;;;;;;5065461;28;20210;-80
2022/07/23 10:22:14;;;;;;;1.65;1.27;;;27.60;99.90;;;;;;5063541;28;20651;-79
2022/07/23 10:24:40;;;;;;;0.80;0.80;;;28.30;99.90;;;;;;5068926;28;20177;-80
2022/07/23 10:27:24;;;;;;;1.35;1.25;;;28.40;99.90;;;;;;5069082;28;20263;-81
2022/07/23 10:30:06;;;;;;;1.08;0.90;;;28.30;99.90;;;;;;5081417;28;20201;-80
2022/07/23 10:32:47;;;;;;;0.77;0.77;;;29.00;99.90;;;;;;5066631;28;20184;-80
2022/07/23 10:35:24;;;;;;;1.00;0.93;;;28.60;99.90;;;;;;5061925;28;20213;-80
2022/07/23 10:38:13;;;;;;;2.28;1.83;;;28.40;99.90;;;;;;5084295;28;20565;-80
2022/07/23 10:41:03;;;;;;;0.80;0.80;;;28.70;99.90;;;;;;5084026;28;20209;-80
2022/07/23 10:43:29;;;;;;;1.08;1.08;;;28.80;99.90;;;;;;5069618;28;20192;-79
2022/07/23 10:45:56;;;;;;;0.60;0.60;;;29.10;99.90;;;;;;5065565;28;20186;-80
2022/07/23 10:48:22;;;;;;;0.98;0.98;;;29.30;99.90;;;;;;5060221;28;20224;-80
2022/07/23 10:51:11;;;;;;;1.77;1.50;;;29.60;99.90;;;;;;5066449;28;20282;-80
2022/07/23 10:53:51;;;;;;;1.55;0.77;;;30.10;99.90;;;;;;5065800;28;20390;-80
2022/07/23 10:56:49;;;;;;;1.23;1.13;;;29.10;99.90;;;;;;5067532;28;20287;-80
2022/07/23 10:59:14;;;;;;;1.20;1.00;;;29.20;99.90;;;;;;5062909;28;20232;-80
2022/07/23 11:01:40;;;;;;;2.90;1.42;;;28.80;99.90;;;;;;5068757;28;20181;-80
2022/07/23 11:04:07;;;;;;;0.77;0.77;;;29.00;99.90;;;;;;5069658;28;20884;-80
2022/07/23 11:06:48;;;;;;;0.80;0.80;;;28.90;99.90;;;;;;5065642;28;20657;-84
2022/07/23 11:09:28;;;;;;;1.48;1.23;;;29.60;99.90;;;;;;5085604;28;20564;-80
2022/07/23 11:12:12;;;;;;;1.45;1.25;;;29.90;99.90;;;;;;5067924;28;20227;-80
2022/07/23 11:15:06;;;;;;;1.00;0.90;;;29.90;99.90;;;;;;5070357;28;20187;-80
2022/07/23 11:17:39;;;;;;;1.85;1.20;;;30.60;99.90;;;;;;5065827;28;20574;-79
2022/07/23 11:20:17;;;;;;;0.63;0.63;;;31.20;99.90;;;;;;5086486;28;20223;-80
2022/07/23 11:22:43;;;;;;;0.57;0.57;;;31.50;99.90;;;;;;5065091;28;20177;-80
2022/07/23 11:25:32;;;;;;;1.60;1.17;;;31.60;99.90;;;;;;5067980;28;20185;-79
2022/07/23 11:28:20;;;;;;;0.68;0.50;;;31.70;99.90;;;;;;5060477;28;20276;-80
2022/07/23 11:30:47;;;;;;;0.80;0.80;;;32.00;99.90;;;;;;5069474;28;20220;-80
2022/07/23 11:33:13;;;;;;;1.00;0.90;;;32.30;99.90;;;;;;5068006;28;20181;-80
2022/07/23 11:35:44;;;;;;;0.90;0.70;;;32.10;99.90;;;;;;5072345;28;20188;-80
2022/07/23 11:38:16;;;;;;;3.20;1.85;;;30.90;99.90;;;;;;5070264;28;20200;-80
2022/07/23 11:40:45;;;;;;;0.80;0.80;;;29.50;99.90;;;;;;5069157;28;20205;-80
2022/07/23 11:43:12;;;;;;;0.88;0.88;;;29.50;99.90;;;;;;5066908;28;20189;-80
2022/07/23 11:45:39;;;;;;;3.03;1.13;;;30.00;99.90;;;;;;5066268;28;20173;-80
2022/07/23 11:48:09;;;;;;;1.85;1.30;;;30.30;99.90;;;;;;5069658;28;20177;-80
2022/07/23 11:50:35;;;;;;;1.33;1.20;;;29.60;99.90;;;;;;5068155;28;20661;-80
2022/07/23 11:53:01;;;;;;;1.65;1.55;;;29.00;99.90;;;;;;5066814;28;20190;-80
2022/07/23 11:55:28;;;;;;;0.77;0.60;;;29.10;99.90;;;;;;5067515;28;20181;-80
2022/07/23 11:57:54;;;;;;;0.82;0.80;;;29.70;99.90;;;;;;5066625;28;20288;-80
2022/07/23 12:00:23;;;;;;;1.10;0.80;;;30.20;99.90;;;;;;5063259;28;20674;-80
2022/07/23 12:02:58;;;;;;;2.70;1.40;;;29.80;99.90;;;;;;5067940;28;20230;-80
2022/07/23 12:05:26;;;;;;;2.10;1.30;;;29.20;99.90;;;;;;5082109;28;20610;-80
2022/07/23 12:07:55;;;;;;;2.20;1.95;;;29.00;99.90;;;;;;5067493;28;20181;-80
2022/07/23 12:10:29;;;;;;;0.70;0.70;;;29.20;99.90;;;;;;5061132;28;20215;-79
2022/07/23 12:13:00;;;;;;;0.90;0.90;;;29.50;99.90;;;;;;5069235;28;20242;-80
2022/07/23 12:15:32;;;;;;;0.77;0.77;;;29.60;99.90;;;;;;5066754;28;20185;-80
2022/07/23 12:17:59;;;;;;;0.82;0.82;;;29.70;99.90;;;;;;5068082;28;20284;-80
2022/07/23 12:20:28;;;;;;;0.90;0.90;;;28.80;99.90;;;;;;5066234;28;20197;-80
2022/07/23 12:22:59;;;;;;;1.30;1.20;;;28.70;99.90;;;;;;5065441;28;20230;-80
2022/07/23 12:25:26;;;;;;;1.48;1.38;;;28.50;99.90;;;;;;5065041;28;20186;-80
2022/07/23 12:28:04;;;;;;;1.13;1.02;;;28.30;99.90;;;;;;5063750;28;20203;-80
2022/07/23 12:30:51;;;;;;;1.02;0.82;;;28.60;99.90;;;;;;5066309;28;20254;-79
2022/07/23 12:33:32;;;;;;;1.25;1.15;;;29.20;99.90;;;;;;5063965;28;20186;-79
2022/07/23 12:36:00;;;;;;;1.35;1.00;;;30.00;99.90;;;;;;5056162;28;20189;-79
2022/07/23 12:38:28;;;;;;;2.15;1.35;;;30.50;99.90;;;;;;5060363;28;20190;-79
2022/07/23 12:40:59;;;;;;;1.30;1.20;;;31.00;99.90;;;;;;5066193;28;21581;-80
2022/07/23 12:43:31;;;;;;;1.40;0.93;;;30.70;99.90;;;;;;5069280;28;20269;-80
2022/07/23 12:46:02;;;;;;;0.80;0.80;;;30.80;99.90;;;;;;5060848;28;20229;-79
2022/07/23 12:48:29;;;;;;;2.15;1.25;;;31.40;99.90;;;;;;5053425;28;20193;-81
2022/07/23 12:51:04;;;;;;;1.90;1.27;;;31.00;99.90;;;;;;5067220;28;20205;-83
2022/07/23 12:53:43;;;;;;;1.40;1.17;;;30.80;99.90;;;;;;5065777;28;20203;-82